Spring Valley Lake, California
Current Conditions -  °F | °C
As of 12:55 PM on Thursday 23 Oct 2014 (Local Time) from KVCV Reporting Station
Clear Clear  
Wind Chill: 82°   Ceiling: Unl
Heat Index: 82°   Visibility: 10mi
Dew Point: 27°   Wind: 0mph
Humidity: 13%   Direction: NA
Pressure: 30.06"   Gusts: NA
Location:  34.483°N, 117.376°W
Report Text: KVCV 231955Z AUTO 00000KT 10SM CLR 28/M03 A3006 RMK AO2
Loading
Personal Weather Stations






























Interactive Weather Map
Tropical Storm Tracking
New forecast layout! Learn more

10-Day Weather Forecast

Advertisements
Track Severe Weather on mobile